臺北終端管制區 - 桃園北區雷達席

METAR RCTP 271100Z 04024G34KT 9999 FEW010 BKN018 BKN030 21/17 Q1022 NOSIG RMK A3019=

站台狀態:Online
最後更新:2020-11-27 19:00:01